createdAt,value
2023-03-21T00:00:16.361Z,10.07
2023-03-21T00:01:15.337Z,10.12
2023-03-21T00:02:15.364Z,10.12
2023-03-21T00:03:15.338Z,10.23
2023-03-21T00:04:15.334Z,10.15
2023-03-21T00:05:16.161Z,10.12
2023-03-21T00:06:15.281Z,10.12
2023-03-21T00:07:15.260Z,10.16
2023-03-21T00:08:15.272Z,10.05
2023-03-21T00:09:15.256Z,10.13
2023-03-21T00:10:21.504Z,10.19
2023-03-21T00:11:16.214Z,10.05
2023-03-21T00:12:15.218Z,10.05
2023-03-21T00:13:15.241Z,10.09
2023-03-21T00:14:15.265Z,10.02
2023-03-21T00:15:15.172Z,10.10
2023-03-21T00:16:25.032Z,10.07
2023-03-21T00:17:16.157Z,10.07
2023-03-21T00:18:15.150Z,10.10
2023-03-21T00:19:15.132Z,10.04
2023-03-21T00:20:15.190Z,10.09
2023-03-21T00:21:40.682Z,10.19
2023-03-21T00:22:16.114Z,10.19
2023-03-21T00:23:15.080Z,10.10
2023-03-21T00:24:15.088Z,10.16
2023-03-21T00:25:15.079Z,10.07
2023-03-21T00:26:15.048Z,10.17
2023-03-21T00:27:42.542Z,10.15
2023-03-21T00:28:16.039Z,10.07
2023-03-21T00:29:15.016Z,10.13
2023-03-21T00:30:15.015Z,10.15
2023-03-21T00:31:14.995Z,10.16
2023-03-21T00:32:14.997Z,10.17
2023-03-21T00:33:22.413Z,10.19
2023-03-21T00:34:14.976Z,10.17
2023-03-21T00:35:51.647Z,10.17
2023-03-21T00:36:16.137Z,10.23
2023-03-21T00:37:14.929Z,10.15
2023-03-21T00:38:14.927Z,10.15
2023-03-21T00:39:14.912Z,10.16
2023-03-21T00:40:32.912Z,10.13
2023-03-21T00:41:26.282Z,10.17
2023-03-21T00:42:15.870Z,10.16
2023-03-21T00:43:14.858Z,10.17
2023-03-21T00:44:14.851Z,10.13
2023-03-21T00:45:14.844Z,10.17
2023-03-21T00:46:14.894Z,10.25
2023-03-21T00:47:14.886Z,10.12
2023-03-21T00:48:14.834Z,10.07
2023-03-21T00:49:14.801Z,10.23
2023-03-21T00:50:14.793Z,10.16
2023-03-21T00:51:14.777Z,10.20
2023-03-21T00:52:20.357Z,10.12
2023-03-21T00:53:15.766Z,10.17
2023-03-21T00:54:14.745Z,10.15
2023-03-21T00:55:14.736Z,10.16
2023-03-21T00:56:14.724Z,10.20
2023-03-21T00:57:14.751Z,10.15
2023-03-21T00:58:14.694Z,10.17
2023-03-21T00:59:14.683Z,10.19
2023-03-21T01:00:14.681Z,10.19
2023-03-21T01:01:14.697Z,10.15
2023-03-21T01:02:15.130Z,10.16
2023-03-21T01:03:24.445Z,10.22
2023-03-21T01:04:15.632Z,10.23
2023-03-21T01:05:14.615Z,10.19
2023-03-21T01:06:14.606Z,10.19
2023-03-21T01:07:14.614Z,10.17
2023-03-21T01:08:26.475Z,10.19
2023-03-21T01:09:15.579Z,10.19
2023-03-21T01:10:14.569Z,10.17
2023-03-21T01:11:14.546Z,10.16
2023-03-21T01:12:14.540Z,10.20
2023-03-21T01:13:14.565Z,10.13
2023-03-21T01:14:22.425Z,10.15
2023-03-21T01:15:15.516Z,10.12
2023-03-21T01:16:14.580Z,10.12
2023-03-21T01:17:14.489Z,10.22
2023-03-21T01:18:14.476Z,10.19
2023-03-21T01:19:25.034Z,10.17
2023-03-21T01:20:15.450Z,10.17
2023-03-21T01:21:14.438Z,10.16
2023-03-21T01:22:14.452Z,10.25
2023-03-21T01:23:14.418Z,10.17
2023-03-21T01:24:14.426Z,10.16
2023-03-21T01:25:22.319Z,10.16
2023-03-21T01:26:15.405Z,10.12
2023-03-21T01:27:14.389Z,10.16
2023-03-21T01:28:14.362Z,10.19
2023-03-21T01:29:14.370Z,10.16
2023-03-21T01:30:20.568Z,10.19
2023-03-21T01:31:15.372Z,10.17
2023-03-21T01:32:14.322Z,10.17
2023-03-21T01:33:14.309Z,10.17
2023-03-21T01:34:14.296Z,10.17
2023-03-21T01:35:14.301Z,10.17
2023-03-21T01:36:14.933Z,10.20
2023-03-21T01:37:14.258Z,10.23
2023-03-21T01:38:14.257Z,10.16
2023-03-21T01:39:14.234Z,10.23
2023-03-21T01:40:14.237Z,10.13
2023-03-21T01:41:19.957Z,10.16
2023-03-21T01:42:15.217Z,10.16
2023-03-21T01:43:14.199Z,10.15
2023-03-21T01:44:14.188Z,10.23
2023-03-21T01:45:14.200Z,10.13
2023-03-21T01:46:14.288Z,10.17
2023-03-21T01:47:14.161Z,10.12
2023-03-21T01:48:14.201Z,10.07
2023-03-21T01:49:14.128Z,10.12
2023-03-21T01:50:14.130Z,10.15
2023-03-21T01:51:14.101Z,10.17
2023-03-21T01:52:23.572Z,10.12
2023-03-21T01:53:15.092Z,10.15
2023-03-21T01:54:14.083Z,10.16
2023-03-21T01:55:14.084Z,10.23
2023-03-21T01:56:14.064Z,10.12
2023-03-21T01:57:14.051Z,10.12
2023-03-21T01:58:14.067Z,10.15
2023-03-21T01:59:14.014Z,10.07
2023-03-21T02:00:14.024Z,10.16
2023-03-21T02:01:14.137Z,10.16
2023-03-21T02:02:13.983Z,10.16
2023-03-21T02:03:23.539Z,10.12
2023-03-21T02:04:14.993Z,10.17
2023-03-21T02:05:13.953Z,10.07
2023-03-21T02:06:13.963Z,10.13
2023-03-21T02:07:13.925Z,10.22
2023-03-21T02:08:13.924Z,10.22
2023-03-21T02:09:13.921Z,10.13
2023-03-21T02:10:13.903Z,10.16
2023-03-21T02:11:13.908Z,10.17
2023-03-21T02:12:13.874Z,10.10
2023-03-21T02:13:13.860Z,10.09
2023-03-21T02:14:20.102Z,10.17
2023-03-21T02:15:14.874Z,10.12
2023-03-21T02:16:13.907Z,10.17
2023-03-21T02:17:13.850Z,10.10
2023-03-21T02:18:13.818Z,10.17
2023-03-21T02:19:15.753Z,10.10
2023-03-21T02:20:13.785Z,10.10
2023-03-21T02:21:13.783Z,10.23
2023-03-21T02:22:13.762Z,10.05
2023-03-21T02:23:13.766Z,10.09
2023-03-21T02:24:13.750Z,10.22
2023-03-21T02:25:21.800Z,10.12
2023-03-21T02:26:14.723Z,10.10
2023-03-21T02:27:13.705Z,10.02
2023-03-21T02:28:13.710Z,10.10
2023-03-21T02:29:13.682Z,10.15
2023-03-21T02:30:20.159Z,10.05
2023-03-21T02:31:14.686Z,10.19
2023-03-21T02:32:22.772Z,10.12
2023-03-21T02:33:14.660Z,10.12
2023-03-21T02:34:13.633Z,10.05
2023-03-21T02:35:13.623Z,10.05
2023-03-21T02:36:14.765Z,10.10
2023-03-21T02:37:13.593Z,10.02
2023-03-21T02:38:13.593Z,10.09
2023-03-21T02:39:13.578Z,10.07
2023-03-21T02:40:13.607Z,10.12
2023-03-21T02:41:19.097Z,10.12
2023-03-21T02:42:13.551Z,9.97
2023-03-21T02:43:22.601Z,10.01
2023-03-21T02:44:14.520Z,9.99
2023-03-21T02:45:13.513Z,9.95
2023-03-21T02:46:13.561Z,9.95
2023-03-21T02:47:13.549Z,10.01
2023-03-21T02:48:25.448Z,9.95
2023-03-21T02:49:14.480Z,9.91
2023-03-21T02:50:13.462Z,9.91
2023-03-21T02:51:13.441Z,9.89
2023-03-21T02:52:18.675Z,9.84
2023-03-21T02:53:14.426Z,9.86
2023-03-21T02:54:45.299Z,9.83
2023-03-21T02:55:14.640Z,9.83
2023-03-21T02:56:13.389Z,9.84
2023-03-21T02:57:13.374Z,9.89
2023-03-21T02:58:13.780Z,9.79
2023-03-21T02:59:13.363Z,9.86
2023-03-21T03:00:17.182Z,9.79
2023-03-21T03:01:13.355Z,9.79
2023-03-21T03:02:13.330Z,9.79
2023-03-21T03:03:24.771Z,9.79
2023-03-21T03:04:14.333Z,9.80
2023-03-21T03:05:20.674Z,9.73
2023-03-21T03:06:14.285Z,9.65
2023-03-21T03:07:13.267Z,9.68
2023-03-21T03:08:13.258Z,9.68
2023-03-21T03:09:13.259Z,9.74
2023-03-21T03:10:13.229Z,9.66
2023-03-21T03:11:13.223Z,9.68
2023-03-21T03:12:13.214Z,9.69
2023-03-21T03:13:13.217Z,9.64
2023-03-21T03:14:35.870Z,9.69
2023-03-21T03:15:14.190Z,9.65
2023-03-21T03:16:13.205Z,9.69
2023-03-21T03:17:13.157Z,9.58
2023-03-21T03:18:13.152Z,9.61
2023-03-21T03:19:13.141Z,9.62
2023-03-21T03:20:16.385Z,9.58
2023-03-21T03:21:13.134Z,9.65
2023-03-21T03:22:13.097Z,9.58
2023-03-21T03:23:13.101Z,9.69
2023-03-21T03:24:13.077Z,9.56
2023-03-21T03:25:23.051Z,9.61
2023-03-21T03:26:14.054Z,9.69
2023-03-21T03:27:13.047Z,9.72
2023-03-21T03:28:13.036Z,9.72
2023-03-21T03:29:13.033Z,9.62
2023-03-21T03:30:13.024Z,9.58
2023-03-21T03:31:13.293Z,9.73
2023-03-21T03:32:12.987Z,9.65
2023-03-21T03:33:12.976Z,9.68
2023-03-21T03:34:12.974Z,9.65
2023-03-21T03:35:12.961Z,9.61
2023-03-21T03:36:28.386Z,9.66
2023-03-21T03:37:13.960Z,9.68
2023-03-21T03:38:12.920Z,9.65
2023-03-21T03:39:12.912Z,9.68
2023-03-21T03:40:12.918Z,9.68
2023-03-21T03:41:12.888Z,9.66
2023-03-21T03:42:27.165Z,9.66
2023-03-21T03:43:13.868Z,9.66
2023-03-21T03:44:12.856Z,9.76
2023-03-21T03:45:12.847Z,9.79
2023-03-21T03:46:12.864Z,9.83
2023-03-21T03:47:22.902Z,9.77
2023-03-21T03:48:13.846Z,9.76
2023-03-21T03:49:12.804Z,9.79
2023-03-21T03:50:12.786Z,9.79
2023-03-21T03:51:12.781Z,9.82
2023-03-21T03:52:12.783Z,9.79
2023-03-21T03:53:18.031Z,9.79
2023-03-21T03:54:13.747Z,9.83
2023-03-21T03:55:12.749Z,9.82
2023-03-21T03:56:12.746Z,9.83
2023-03-21T03:57:12.714Z,9.82
2023-03-21T03:58:21.770Z,9.84
2023-03-21T03:59:13.688Z,9.76
2023-03-21T04:00:12.674Z,9.80
2023-03-21T04:01:12.665Z,9.79
2023-03-21T04:02:12.747Z,9.83
2023-03-21T04:03:12.860Z,9.87
2023-03-21T04:04:13.751Z,9.80
2023-03-21T04:05:12.625Z,9.87
2023-03-21T04:06:12.608Z,9.89
2023-03-21T04:07:12.605Z,9.79
2023-03-21T04:08:12.588Z,9.86
2023-03-21T04:09:20.464Z,9.79
2023-03-21T04:10:13.583Z,9.89
2023-03-21T04:11:12.569Z,9.89
2023-03-21T04:12:12.568Z,9.89
2023-03-21T04:13:12.537Z,9.97
2023-03-21T04:14:12.529Z,9.95
2023-03-21T04:15:12.520Z,9.94
2023-03-21T04:16:12.551Z,9.94
2023-03-21T04:17:12.510Z,9.92
2023-03-21T04:18:12.496Z,9.95
2023-03-21T04:19:12.486Z,9.98
2023-03-21T04:20:20.728Z,9.94
2023-03-21T04:21:13.524Z,9.97
2023-03-21T04:22:12.435Z,9.95
2023-03-21T04:23:12.431Z,9.95
2023-03-21T04:24:12.416Z,9.95
2023-03-21T04:25:14.143Z,9.94
2023-03-21T04:26:12.390Z,9.95
2023-03-21T04:27:12.394Z,9.97
2023-03-21T04:28:12.375Z,9.98
2023-03-21T04:29:12.360Z,9.89
2023-03-21T04:30:12.368Z,9.91
2023-03-21T04:31:24.604Z,9.99
2023-03-21T04:32:13.363Z,9.95
2023-03-21T04:33:12.315Z,9.97
2023-03-21T04:34:12.713Z,9.89
2023-03-21T04:35:12.292Z,9.98
2023-03-21T04:36:12.337Z,9.92
2023-03-21T04:37:12.291Z,9.97
2023-03-21T04:38:12.263Z,10.04
2023-03-21T04:39:12.545Z,9.98
2023-03-21T04:40:12.235Z,9.92
2023-03-21T04:41:12.249Z,9.98
2023-03-21T04:42:12.230Z,9.95
2023-03-21T04:43:19.939Z,9.95
2023-03-21T04:44:12.203Z,10.02
2023-03-21T04:45:12.182Z,9.94
2023-03-21T04:46:12.251Z,9.94
2023-03-21T04:47:12.169Z,10.04
2023-03-21T04:48:12.202Z,9.97
2023-03-21T04:49:12.153Z,9.99
2023-03-21T04:50:12.123Z,9.98
2023-03-21T04:51:12.113Z,10.04
2023-03-21T04:52:12.107Z,9.97
2023-03-21T04:53:12.140Z,10.07
2023-03-21T04:54:12.089Z,10.05
2023-03-21T04:55:12.073Z,10.07
2023-03-21T04:56:12.055Z,10.02
2023-03-21T04:57:12.092Z,10.13
2023-03-21T04:58:12.062Z,10.07
2023-03-21T04:59:12.048Z,10.07
2023-03-21T05:00:12.012Z,10.04
2023-03-21T05:01:12.081Z,9.97
2023-03-21T05:02:11.990Z,10.04
2023-03-21T05:03:11.998Z,10.13
2023-03-21T05:04:12.040Z,10.05
2023-03-21T05:05:11.972Z,10.05
2023-03-21T05:06:11.949Z,10.15
2023-03-21T05:07:11.953Z,10.04
2023-03-21T05:08:11.926Z,10.13
2023-03-21T05:09:11.946Z,10.05
2023-03-21T05:10:11.940Z,10.07
2023-03-21T05:11:11.902Z,10.09
2023-03-21T05:12:11.874Z,10.04
2023-03-21T05:13:11.891Z,10.04
2023-03-21T05:14:11.864Z,10.09
2023-03-21T05:15:11.848Z,10.12
2023-03-21T05:16:11.832Z,10.12
2023-03-21T05:17:11.851Z,10.01
2023-03-21T05:18:11.820Z,10.10
2023-03-21T05:19:11.804Z,10.09
2023-03-21T05:20:11.835Z,10.04
2023-03-21T05:21:11.786Z,10.02
2023-03-21T05:22:11.766Z,10.02
2023-03-21T05:23:11.820Z,10.02
2023-03-21T05:24:11.760Z,10.02
2023-03-21T05:25:11.756Z,9.98
2023-03-21T05:26:11.727Z,10.05
2023-03-21T05:27:11.709Z,10.05
2023-03-21T05:28:11.714Z,10.05
2023-03-21T05:29:11.714Z,10.02
2023-03-21T05:30:11.698Z,9.99
2023-03-21T05:31:11.685Z,10.02
2023-03-21T05:32:11.670Z,10.10
2023-03-21T05:33:11.654Z,10.01
2023-03-21T05:34:11.630Z,10.07
2023-03-21T05:35:11.622Z,9.97
2023-03-21T05:36:11.646Z,9.95
2023-03-21T05:37:11.599Z,9.98
2023-03-21T05:38:11.611Z,9.95
2023-03-21T05:39:11.577Z,9.98
2023-03-21T05:40:11.565Z,9.99
2023-03-21T05:41:11.558Z,10.04
2023-03-21T05:42:11.561Z,10.01
2023-03-21T05:43:11.535Z,9.97
2023-03-21T05:44:11.527Z,10.07
2023-03-21T05:45:11.534Z,10.02
2023-03-21T05:46:11.537Z,9.95
2023-03-21T05:47:11.505Z,10.02
2023-03-21T05:48:11.567Z,9.94
2023-03-21T05:49:11.493Z,10.04
2023-03-21T05:50:11.464Z,10.05
2023-03-21T05:51:11.445Z,9.97
2023-03-21T05:52:11.435Z,10.04
2023-03-21T05:53:11.426Z,9.99
2023-03-21T05:54:11.424Z,9.95
2023-03-21T05:55:11.412Z,9.98
2023-03-21T05:56:11.392Z,9.97
2023-03-21T05:57:11.380Z,9.98
2023-03-21T05:58:11.368Z,9.97
2023-03-21T05:59:11.388Z,9.97
2023-03-21T06:00:11.344Z,9.92
2023-03-21T06:01:11.367Z,9.91
2023-03-21T06:02:11.332Z,9.98
2023-03-21T06:03:11.315Z,9.86
2023-03-21T06:04:11.411Z,9.91
2023-03-21T06:05:11.304Z,9.89
2023-03-21T06:06:11.277Z,9.84
2023-03-21T06:07:11.268Z,9.79
2023-03-21T06:08:11.276Z,9.83
2023-03-21T06:09:11.247Z,9.86
2023-03-21T06:10:11.261Z,9.84
2023-03-21T06:11:11.228Z,9.92
2023-03-21T06:12:11.211Z,9.92
2023-03-21T06:13:11.210Z,9.84
2023-03-21T06:14:11.198Z,9.87
2023-03-21T06:15:11.211Z,9.87
2023-03-21T06:16:11.250Z,9.91
2023-03-21T06:17:11.183Z,9.82
2023-03-21T06:18:11.162Z,9.91
2023-03-21T06:19:11.139Z,9.94
2023-03-21T06:20:11.138Z,9.95
2023-03-21T06:21:11.130Z,9.87
2023-03-21T06:22:11.151Z,9.91
2023-03-21T06:23:11.165Z,9.91
2023-03-21T06:24:11.182Z,9.91
2023-03-21T06:25:11.086Z,9.95
2023-03-21T06:26:11.166Z,9.92
2023-03-21T06:27:11.066Z,9.95
2023-03-21T06:28:11.033Z,9.84
2023-03-21T06:29:11.034Z,9.91
2023-03-21T06:30:11.025Z,9.87
2023-03-21T06:31:11.040Z,9.87
2023-03-21T06:32:10.991Z,9.92
2023-03-21T06:33:11.016Z,9.94
2023-03-21T06:34:10.967Z,9.92
2023-03-21T06:35:10.978Z,9.83
2023-03-21T06:36:10.956Z,9.91
2023-03-21T06:37:10.941Z,9.89
2023-03-21T06:38:10.935Z,9.80
2023-03-21T06:39:10.923Z,9.84
2023-03-21T06:40:10.901Z,9.91
2023-03-21T06:41:10.903Z,9.83
2023-03-21T06:42:10.888Z,9.84
2023-03-21T06:43:10.873Z,9.86
2023-03-21T06:44:10.876Z,9.89
2023-03-21T06:45:10.852Z,9.84
2023-03-21T06:46:10.852Z,9.83
2023-03-21T06:47:10.837Z,9.89
2023-03-21T06:48:10.840Z,9.84
2023-03-21T06:49:10.830Z,9.82
2023-03-21T06:50:10.878Z,9.92
2023-03-21T06:51:10.798Z,9.82
2023-03-21T06:52:10.781Z,9.84
2023-03-21T06:53:10.762Z,9.76
2023-03-21T06:54:10.756Z,9.84
2023-03-21T06:55:10.749Z,9.86
2023-03-21T06:56:10.741Z,9.83
2023-03-21T06:57:10.723Z,9.79
2023-03-21T06:58:10.706Z,9.76
2023-03-21T06:59:10.709Z,9.79
2023-03-21T07:00:10.698Z,9.84
2023-03-21T07:01:10.755Z,9.82
2023-03-21T07:02:10.705Z,9.84
2023-03-21T07:03:10.648Z,9.82
2023-03-21T07:04:10.650Z,9.86
2023-03-21T07:05:10.653Z,9.80
2023-03-21T07:06:10.617Z,9.89
2023-03-21T07:07:10.637Z,9.89
2023-03-21T07:08:10.594Z,9.84
2023-03-21T07:09:10.599Z,9.83
2023-03-21T07:10:10.602Z,9.92
2023-03-21T07:11:10.571Z,9.86
2023-03-21T07:12:10.555Z,9.76
2023-03-21T07:13:10.551Z,9.79
2023-03-21T07:14:10.530Z,9.79
2023-03-21T07:15:10.526Z,9.87
2023-03-21T07:16:10.565Z,9.87
2023-03-21T07:17:10.498Z,9.83
2023-03-21T07:18:10.496Z,9.77
2023-03-21T07:19:10.477Z,9.86
2023-03-21T07:20:10.461Z,9.94
2023-03-21T07:21:10.479Z,9.97
2023-03-21T07:22:10.456Z,9.99
2023-03-21T07:23:10.432Z,9.94
2023-03-21T07:24:10.417Z,9.95
2023-03-21T07:25:10.508Z,10.05
2023-03-21T07:26:10.424Z,9.99
2023-03-21T07:27:10.383Z,9.94
2023-03-21T07:28:10.386Z,9.95
2023-03-21T07:29:10.363Z,9.92
2023-03-21T07:30:10.359Z,9.92
2023-03-21T07:31:10.415Z,9.86
2023-03-21T07:32:10.354Z,9.84
2023-03-21T07:33:10.321Z,9.91
2023-03-21T07:34:10.319Z,9.97
2023-03-21T07:35:10.296Z,9.92
2023-03-21T07:36:10.377Z,9.97
2023-03-21T07:37:10.299Z,9.98
2023-03-21T07:38:10.291Z,10.07
2023-03-21T07:39:10.268Z,10.07
2023-03-21T07:40:10.245Z,10.01
2023-03-21T07:41:10.254Z,9.92
2023-03-21T07:43:10.215Z,9.99
2023-03-21T07:44:10.218Z,10.01
2023-03-21T07:45:10.185Z,9.97
2023-03-21T07:46:10.237Z,10.05
2023-03-21T07:47:10.180Z,10.07
2023-03-21T07:48:10.235Z,10.13
2023-03-21T07:49:10.154Z,10.04
2023-03-21T07:50:10.134Z,10.07
2023-03-21T07:51:10.126Z,10.07
2023-03-21T07:52:10.121Z,10.07
2023-03-21T07:53:10.132Z,10.01
2023-03-21T07:54:10.091Z,10.07
2023-03-21T07:55:10.070Z,10.09
2023-03-21T07:56:10.070Z,10.10
2023-03-21T07:57:12.484Z,10.04
2023-03-21T07:58:10.042Z,10.10
2023-03-21T07:59:10.032Z,10.17
2023-03-21T08:00:10.024Z,10.12
2023-03-21T08:01:10.007Z,10.15
2023-03-21T08:02:10.029Z,10.02
2023-03-21T08:03:10.064Z,10.10
2023-03-21T08:04:09.976Z,10.15
2023-03-21T08:05:09.987Z,10.12
2023-03-21T08:06:09.958Z,10.16
2023-03-21T08:07:09.947Z,10.12
2023-03-21T08:08:09.932Z,10.05
2023-03-21T08:09:09.937Z,10.07
2023-03-21T08:10:09.933Z,10.09
2023-03-21T08:11:09.893Z,10.15
2023-03-21T08:12:09.921Z,10.09
2023-03-21T08:13:09.888Z,10.10
2023-03-21T08:14:09.868Z,10.12
2023-03-21T08:15:09.847Z,10.09
2023-03-21T08:16:09.843Z,10.05
2023-03-21T08:17:09.908Z,10.10
2023-03-21T08:18:09.837Z,10.23
2023-03-21T08:19:09.814Z,10.17
2023-03-21T08:20:09.798Z,10.22
2023-03-21T08:21:09.818Z,10.16
2023-03-21T08:22:09.783Z,10.19
2023-03-21T08:23:09.774Z,10.31
2023-03-21T08:24:09.757Z,10.23
2023-03-21T08:25:09.768Z,10.22
2023-03-21T08:26:09.744Z,10.23
2023-03-21T08:27:09.744Z,10.22
2023-03-21T08:28:09.729Z,10.23
2023-03-21T08:29:09.697Z,10.31
2023-03-21T08:30:09.694Z,10.33
2023-03-21T08:31:09.742Z,10.35
2023-03-21T08:32:09.676Z,10.35
2023-03-21T08:33:09.654Z,10.38
2023-03-21T08:34:09.657Z,10.41
2023-03-21T08:35:09.634Z,10.33
2023-03-21T08:36:09.714Z,10.42
2023-03-21T08:37:09.613Z,10.40
2023-03-21T08:38:09.619Z,10.41
2023-03-21T08:39:09.598Z,10.46
2023-03-21T08:40:09.583Z,10.42
2023-03-21T08:41:09.588Z,10.40
2023-03-21T08:42:09.581Z,10.41
2023-03-21T08:43:09.545Z,10.48
2023-03-21T08:44:09.602Z,10.54
2023-03-21T08:45:09.527Z,10.44
2023-03-21T08:46:09.599Z,10.41
2023-03-21T08:47:09.511Z,10.48
2023-03-21T08:48:09.569Z,10.42
2023-03-21T08:49:09.482Z,10.48
2023-03-21T08:50:09.479Z,10.42
2023-03-21T08:51:09.450Z,10.46
2023-03-21T08:52:09.453Z,10.56
2023-03-21T08:53:09.428Z,10.54
2023-03-21T08:54:09.421Z,10.61
2023-03-21T08:55:09.433Z,10.67
2023-03-21T08:56:09.400Z,10.67
2023-03-21T08:57:09.430Z,10.57
2023-03-21T08:58:09.406Z,10.69
2023-03-21T08:59:09.374Z,10.69
2023-03-21T09:00:09.356Z,10.71
2023-03-21T09:01:09.362Z,10.69
2023-03-21T09:02:09.385Z,10.72
2023-03-21T09:03:11.639Z,10.67
2023-03-21T09:04:09.385Z,10.69
2023-03-21T09:05:09.317Z,10.72
2023-03-21T09:06:09.295Z,10.74
2023-03-21T09:07:09.297Z,10.76
2023-03-21T09:08:09.315Z,10.81
2023-03-21T09:09:09.260Z,10.69
2023-03-21T09:10:20.521Z,10.74
2023-03-21T09:11:10.238Z,10.86
2023-03-21T09:12:09.222Z,10.84
2023-03-21T09:13:09.245Z,10.94
2023-03-21T09:14:09.207Z,10.84
2023-03-21T09:15:09.204Z,10.89
2023-03-21T09:16:09.275Z,10.89
2023-03-21T09:17:09.177Z,10.87
2023-03-21T09:18:09.198Z,10.89
2023-03-21T09:19:09.161Z,10.99
2023-03-21T09:20:09.144Z,10.96
2023-03-21T09:21:09.131Z,10.86
2023-03-21T09:22:09.124Z,10.84
2023-03-21T09:23:09.102Z,10.89
2023-03-21T09:24:09.109Z,11.00
2023-03-21T09:25:09.074Z,10.96
2023-03-21T09:26:09.069Z,10.99
2023-03-21T09:27:09.058Z,10.97
2023-03-21T09:28:09.060Z,10.90
2023-03-21T09:29:09.115Z,10.87
2023-03-21T09:30:09.047Z,10.99
2023-03-21T09:31:09.035Z,11.05
2023-03-21T09:32:09.013Z,11.08
2023-03-21T09:33:09.095Z,11.00
2023-03-21T09:34:08.977Z,11.05
2023-03-21T09:35:08.979Z,11.02
2023-03-21T09:36:08.990Z,10.97
2023-03-21T09:37:08.952Z,11.00
2023-03-21T09:38:08.966Z,11.11
2023-03-21T09:39:08.928Z,10.97
2023-03-21T09:40:08.935Z,11.12
2023-03-21T09:41:08.927Z,11.00
2023-03-21T09:42:08.894Z,10.97
2023-03-21T09:43:08.888Z,11.07
2023-03-21T09:44:08.868Z,10.96
2023-03-21T09:45:08.885Z,10.97
2023-03-21T09:46:08.866Z,10.93
2023-03-21T09:47:09.117Z,11.04
2023-03-21T09:48:08.888Z,10.96
2023-03-21T09:49:08.829Z,11.10
2023-03-21T09:50:14.932Z,11.05
2023-03-21T09:51:09.785Z,11.00
2023-03-21T09:52:08.786Z,11.00
2023-03-21T09:53:08.773Z,11.10
2023-03-21T09:54:08.806Z,11.07
2023-03-21T09:55:08.756Z,11.05
2023-03-21T09:56:08.736Z,11.00
2023-03-21T09:57:08.725Z,10.93
2023-03-21T09:58:08.706Z,11.07
2023-03-21T09:59:08.711Z,11.04
2023-03-21T10:00:08.694Z,11.07
2023-03-21T10:01:08.879Z,11.07
2023-03-21T10:02:08.668Z,11.11
2023-03-21T10:03:08.674Z,11.05
2023-03-21T10:04:08.716Z,11.05
2023-03-21T10:05:08.633Z,11.10
2023-03-21T10:06:08.638Z,11.14
2023-03-21T10:07:08.614Z,11.12
2023-03-21T10:08:08.620Z,11.17
2023-03-21T10:09:08.594Z,11.15
2023-03-21T10:10:08.586Z,11.17
2023-03-21T10:11:08.570Z,11.11
2023-03-21T10:12:08.559Z,11.14
2023-03-21T10:13:08.543Z,11.18
2023-03-21T10:14:08.542Z,11.22
2023-03-21T10:15:08.521Z,11.19
2023-03-21T10:16:08.549Z,11.19
2023-03-21T10:17:08.538Z,11.19
2023-03-21T10:18:08.582Z,11.23
2023-03-21T10:19:08.473Z,11.26
2023-03-21T10:20:10.501Z,11.18
2023-03-21T10:21:08.449Z,11.17
2023-03-21T10:22:08.451Z,11.05
2023-03-21T10:23:08.470Z,11.05
2023-03-21T10:24:08.416Z,11.12
2023-03-21T10:25:08.414Z,11.08
2023-03-21T10:26:08.408Z,11.15
2023-03-21T10:27:08.416Z,11.12
2023-03-21T10:28:08.379Z,11.17
2023-03-21T10:29:08.418Z,11.15
2023-03-21T10:30:08.363Z,11.15
2023-03-21T10:31:08.342Z,11.10
2023-03-21T10:32:08.460Z,11.07
2023-03-21T10:33:08.512Z,11.05
2023-03-21T10:34:08.348Z,11.08
2023-03-21T10:35:09.595Z,11.19
2023-03-21T10:36:08.384Z,11.25
2023-03-21T10:37:08.276Z,11.22
2023-03-21T10:38:08.266Z,11.33
2023-03-21T10:39:08.279Z,11.23
2023-03-21T10:40:08.250Z,11.35
2023-03-21T10:41:08.229Z,11.40
2023-03-21T10:42:08.221Z,11.30
2023-03-21T10:43:08.209Z,11.43
2023-03-21T10:44:15.303Z,11.25
2023-03-21T10:45:08.215Z,11.30
2023-03-21T10:46:08.340Z,11.19
2023-03-21T10:47:08.441Z,11.23
2023-03-21T10:48:08.291Z,11.29
2023-03-21T10:49:08.337Z,11.29
2023-03-21T10:50:09.779Z,11.22
2023-03-21T10:51:08.158Z,11.19
2023-03-21T10:52:08.118Z,11.23
2023-03-21T10:53:08.095Z,11.29
2023-03-21T10:54:08.112Z,11.23
2023-03-21T10:55:08.073Z,11.22
2023-03-21T10:56:08.070Z,11.22
2023-03-21T10:57:08.060Z,11.30
2023-03-21T10:58:08.043Z,11.35
2023-03-21T10:59:08.029Z,11.37
2023-03-21T11:00:08.023Z,11.29
2023-03-21T11:01:08.095Z,11.17
2023-03-21T11:02:08.079Z,11.18
2023-03-21T11:03:07.992Z,11.29
2023-03-21T11:04:07.994Z,11.40
2023-03-21T11:05:07.999Z,11.37
2023-03-21T11:06:07.983Z,11.44
2023-03-21T11:07:07.966Z,11.37
2023-03-21T11:08:07.937Z,11.50
2023-03-21T11:09:07.927Z,11.45
2023-03-21T11:10:09.285Z,11.43
2023-03-21T11:11:07.903Z,11.41
2023-03-21T11:12:07.892Z,11.45
2023-03-21T11:13:07.898Z,11.48
2023-03-21T11:14:07.895Z,11.55
2023-03-21T11:15:07.890Z,11.60
2023-03-21T11:16:07.950Z,11.54
2023-03-21T11:17:07.910Z,11.60
2023-03-21T11:18:07.825Z,11.50
2023-03-21T11:19:07.820Z,11.48
2023-03-21T11:20:07.812Z,11.55
2023-03-21T11:21:07.813Z,11.52
2023-03-21T11:22:07.796Z,11.55
2023-03-21T11:23:07.767Z,11.55
2023-03-21T11:24:07.813Z,11.51
2023-03-21T11:25:07.740Z,11.59
2023-03-21T11:26:07.733Z,11.52
2023-03-21T11:27:07.725Z,11.57
2023-03-21T11:28:07.708Z,11.52
2023-03-21T11:29:07.710Z,11.52
2023-03-21T11:30:07.695Z,11.48
2023-03-21T11:31:07.701Z,11.51
2023-03-21T11:32:07.687Z,11.43
2023-03-21T11:33:07.671Z,11.48
2023-03-21T11:34:07.648Z,11.48
2023-03-21T11:35:07.654Z,11.44
2023-03-21T11:36:07.715Z,11.41
2023-03-21T11:37:07.630Z,11.41
2023-03-21T11:38:07.605Z,11.47
2023-03-21T11:39:07.594Z,11.43
2023-03-21T11:40:07.593Z,11.50
2023-03-21T11:41:07.584Z,11.37
2023-03-21T11:42:07.566Z,11.48
2023-03-21T11:43:07.557Z,11.47
2023-03-21T11:44:07.564Z,11.41
2023-03-21T11:45:07.535Z,11.41
2023-03-21T11:46:07.556Z,11.44
2023-03-21T11:47:07.512Z,11.37
2023-03-21T11:48:07.557Z,11.32
2023-03-21T11:49:07.501Z,11.45
2023-03-21T11:50:07.468Z,11.41
2023-03-21T11:51:07.464Z,11.47
2023-03-21T11:52:07.482Z,11.44
2023-03-21T11:53:07.467Z,11.40
2023-03-21T11:54:07.434Z,11.47
2023-03-21T11:55:07.435Z,11.47
2023-03-21T11:56:07.414Z,11.40
2023-03-21T11:57:07.401Z,11.48
2023-03-21T11:58:14.236Z,11.51
2023-03-21T11:59:08.443Z,11.43
2023-03-21T12:00:07.366Z,11.40
2023-03-21T12:01:07.343Z,11.51
2023-03-21T12:02:07.341Z,11.52
2023-03-21T12:03:07.426Z,11.54
2023-03-21T12:04:07.366Z,11.51
2023-03-21T12:05:07.303Z,11.50
2023-03-21T12:06:07.311Z,11.62
2023-03-21T12:07:07.277Z,11.63
2023-03-21T12:08:07.273Z,11.70
2023-03-21T12:09:07.294Z,11.75
2023-03-21T12:10:07.246Z,11.75
2023-03-21T12:11:07.251Z,11.78
2023-03-21T12:12:07.228Z,11.69
2023-03-21T12:13:07.227Z,11.72
2023-03-21T12:14:07.214Z,11.80
2023-03-21T12:15:07.192Z,11.72
2023-03-21T12:16:07.230Z,11.77
2023-03-21T12:17:07.179Z,11.88
2023-03-21T12:18:07.151Z,11.95
2023-03-21T12:19:07.156Z,11.95
2023-03-21T12:20:07.142Z,11.86
2023-03-21T12:21:07.130Z,11.81
2023-03-21T12:22:07.108Z,11.99
2023-03-21T12:23:07.148Z,12.06
2023-03-21T12:24:07.089Z,12.13
2023-03-21T12:25:07.104Z,12.15
2023-03-21T12:26:07.076Z,12.18
2023-03-21T12:27:07.060Z,12.21
2023-03-21T12:28:07.053Z,12.07
2023-03-21T12:29:07.043Z,12.17
2023-03-21T12:30:07.018Z,12.17
2023-03-21T12:31:07.093Z,12.25
2023-03-21T12:32:07.008Z,12.22
2023-03-21T12:33:06.993Z,12.27
2023-03-21T12:34:06.974Z,12.25
2023-03-21T12:35:09.471Z,12.10
2023-03-21T12:36:06.995Z,12.03
2023-03-21T12:37:06.947Z,12.13
2023-03-21T12:38:06.928Z,12.21
2023-03-21T12:39:06.914Z,12.10
2023-03-21T12:40:06.901Z,12.10
2023-03-21T12:41:07.011Z,12.07
2023-03-21T12:42:06.906Z,12.22
2023-03-21T12:43:06.869Z,12.21
2023-03-21T12:44:06.862Z,12.13
2023-03-21T12:45:15.263Z,12.20
2023-03-21T12:46:07.832Z,12.20
2023-03-21T12:47:06.997Z,12.13
2023-03-21T12:48:06.886Z,12.18
2023-03-21T12:49:06.800Z,12.20
2023-03-21T12:50:06.800Z,12.15
2023-03-21T12:51:06.791Z,12.13
2023-03-21T12:52:06.774Z,12.15
2023-03-21T12:53:06.767Z,12.18
2023-03-21T12:54:06.744Z,12.17
2023-03-21T12:55:06.744Z,12.24
2023-03-21T12:56:06.725Z,12.24
2023-03-21T12:57:06.834Z,12.18
2023-03-21T12:58:06.709Z,12.27
2023-03-21T12:59:06.691Z,12.27
2023-03-21T13:00:06.683Z,12.24
2023-03-21T13:01:06.764Z,12.24